sensor_id;sensor_type;location;lat;lon;timestamp;temperature;humidity
51884;DHT22;37915;53.254;6.598;2022-11-15T00:01:33;7.50;99.90
51884;DHT22;37915;53.254;6.598;2022-11-15T00:04:08;7.60;99.90
51884;DHT22;37915;53.254;6.598;2022-11-15T00:06:39;8.10;99.90
51884;DHT22;37915;53.254;6.598;2022-11-15T00:09:32;8.50;99.90
51884;DHT22;37915;53.254;6.598;2022-11-15T00:12:08;7.50;99.90
51884;DHT22;37915;53.254;6.598;2022-11-15T00:14:40;7.50;99.90
51884;DHT22;37915;53.254;6.598;2022-11-15T00:17:11;7.60;99.90
51884;DHT22;37915;53.254;6.598;2022-11-15T00:19:39;7.50;99.90
51884;DHT22;37915;53.254;6.598;2022-11-15T00:22:13;7.60;99.90
51884;DHT22;37915;53.254;6.598;2022-11-15T00:25:04;7.40;99.90
51884;DHT22;37915;53.254;6.598;2022-11-15T00:27:32;7.40;99.90
51884;DHT22;37915;53.254;6.598;2022-11-15T00:30:11;7.30;99.90
51884;DHT22;37915;53.254;6.598;2022-11-15T00:32:47;6.60;99.90
51884;DHT22;37915;53.254;6.598;2022-11-15T00:35:15;7.40;99.90
51884;DHT22;37915;53.254;6.598;2022-11-15T00:38:20;6.50;99.90
51884;DHT22;37915;53.254;6.598;2022-11-15T00:40:46;7.30;99.90
51884;DHT22;37915;53.254;6.598;2022-11-15T00:43:26;7.00;99.90
51884;DHT22;37915;53.254;6.598;2022-11-15T00:45:54;7.00;99.90
51884;DHT22;37915;53.254;6.598;2022-11-15T00:48:20;7.60;99.90
51884;DHT22;37915;53.254;6.598;2022-11-15T00:50:48;7.10;99.90
51884;DHT22;37915;53.254;6.598;2022-11-15T00:53:26;8.10;99.90
51884;DHT22;37915;53.254;6.598;2022-11-15T00:58:45;8.50;99.90
51884;DHT22;37915;53.254;6.598;2022-11-15T01:01:13;6.80;99.90
51884;DHT22;37915;53.254;6.598;2022-11-15T01:03:42;7.00;99.90
51884;DHT22;37915;53.254;6.598;2022-11-15T01:06:11;7.00;99.90
51884;DHT22;37915;53.254;6.598;2022-11-15T01:08:47;6.90;99.90
51884;DHT22;37915;53.254;6.598;2022-11-15T01:11:30;7.00;99.90
51884;DHT22;37915;53.254;6.598;2022-11-15T01:14:07;6.60;99.90
51884;DHT22;37915;53.254;6.598;2022-11-15T01:16:33;7.00;99.90
51884;DHT22;37915;53.254;6.598;2022-11-15T01:19:09;8.50;99.90
51884;DHT22;37915;53.254;6.598;2022-11-15T01:21:38;7.00;99.90
51884;DHT22;37915;53.254;6.598;2022-11-15T01:24:08;7.00;99.90
51884;DHT22;37915;53.254;6.598;2022-11-15T01:26:40;7.00;99.90
51884;DHT22;37915;53.254;6.598;2022-11-15T01:29:05;7.10;99.90
51884;DHT22;37915;53.254;6.598;2022-11-15T01:31:31;8.00;99.90
51884;DHT22;37915;53.254;6.598;2022-11-15T01:33:59;7.00;99.90
51884;DHT22;37915;53.254;6.598;2022-11-15T01:36:28;6.50;99.90
51884;DHT22;37915;53.254;6.598;2022-11-15T01:38:57;6.90;99.90
51884;DHT22;37915;53.254;6.598;2022-11-15T01:41:33;7.00;99.90
51884;DHT22;37915;53.254;6.598;2022-11-15T01:47:02;6.90;99.90
51884;DHT22;37915;53.254;6.598;2022-11-15T01:49:30;6.90;99.90
51884;DHT22;37915;53.254;6.598;2022-11-15T01:51:58;7.60;99.90
51884;DHT22;37915;53.254;6.598;2022-11-15T01:54:29;6.90;99.90
51884;DHT22;37915;53.254;6.598;2022-11-15T01:57:05;6.90;99.90
51884;DHT22;37915;53.254;6.598;2022-11-15T01:59:37;7.00;99.90
51884;DHT22;37915;53.254;6.598;2022-11-15T02:02:13;6.90;99.90
51884;DHT22;37915;53.254;6.598;2022-11-15T02:04:51;8.40;99.90
51884;DHT22;37915;53.254;6.598;2022-11-15T02:07:22;7.00;99.90
51884;DHT22;37915;53.254;6.598;2022-11-15T02:09:51;6.90;99.90
51884;DHT22;37915;53.254;6.598;2022-11-15T02:12:25;7.10;99.90
51884;DHT22;37915;53.254;6.598;2022-11-15T02:15:01;7.80;99.90
51884;DHT22;37915;53.254;6.598;2022-11-15T02:20:29;7.10;99.90
51884;DHT22;37915;53.254;6.598;2022-11-15T02:23:15;7.10;99.90
51884;DHT22;37915;53.254;6.598;2022-11-15T02:29:05;7.20;99.90
51884;DHT22;37915;53.254;6.598;2022-11-15T02:40:26;7.20;99.90
51884;DHT22;37915;53.254;6.598;2022-11-15T02:43:04;7.20;99.90
51884;DHT22;37915;53.254;6.598;2022-11-15T02:45:54;7.10;99.90
51884;DHT22;37915;53.254;6.598;2022-11-15T02:48:26;7.20;99.90
51884;DHT22;37915;53.254;6.598;2022-11-15T02:50:55;7.20;99.90
51884;DHT22;37915;53.254;6.598;2022-11-15T02:53:25;7.10;99.90
51884;DHT22;37915;53.254;6.598;2022-11-15T02:55:55;7.20;99.90
51884;DHT22;37915;53.254;6.598;2022-11-15T03:07:05;7.10;99.90
51884;DHT22;37915;53.254;6.598;2022-11-15T03:15:31;7.30;99.90
51884;DHT22;37915;53.254;6.598;2022-11-15T03:18:05;7.20;99.90
51884;DHT22;37915;53.254;6.598;2022-11-15T03:20:36;7.20;99.90
51884;DHT22;37915;53.254;6.598;2022-11-15T03:23:12;7.20;99.90
51884;DHT22;37915;53.254;6.598;2022-11-15T03:25:43;7.20;99.90
51884;DHT22;37915;53.254;6.598;2022-11-15T03:28:24;8.60;99.90
51884;DHT22;37915;53.254;6.598;2022-11-15T03:30:54;8.70;99.90
51884;DHT22;37915;53.254;6.598;2022-11-15T03:33:23;7.20;99.90
51884;DHT22;37915;53.254;6.598;2022-11-15T03:35:56;7.30;99.90
51884;DHT22;37915;53.254;6.598;2022-11-15T03:38:23;7.30;99.90
51884;DHT22;37915;53.254;6.598;2022-11-15T03:41:00;7.30;99.90
51884;DHT22;37915;53.254;6.598;2022-11-15T03:44:11;7.80;99.90
51884;DHT22;37915;53.254;6.598;2022-11-15T03:46:45;7.30;99.90
51884;DHT22;37915;53.254;6.598;2022-11-15T03:49:26;7.60;99.90
51884;DHT22;37915;53.254;6.598;2022-11-15T03:51:53;7.30;99.90
51884;DHT22;37915;53.254;6.598;2022-11-15T03:54:21;8.00;99.90
51884;DHT22;37915;53.254;6.598;2022-11-15T03:56:47;7.40;99.90
51884;DHT22;37915;53.254;6.598;2022-11-15T03:59:12;8.20;99.90
51884;DHT22;37915;53.254;6.598;2022-11-15T04:01:38;8.00;99.90
51884;DHT22;37915;53.254;6.598;2022-11-15T04:04:04;7.40;99.90
51884;DHT22;37915;53.254;6.598;2022-11-15T04:06:29;7.40;99.90
51884;DHT22;37915;53.254;6.598;2022-11-15T04:08:55;7.50;99.90
51884;DHT22;37915;53.254;6.598;2022-11-15T04:11:20;8.60;99.90
51884;DHT22;37915;53.254;6.598;2022-11-15T04:13:46;8.10;99.90
51884;DHT22;37915;53.254;6.598;2022-11-15T04:16:12;7.50;99.90
51884;DHT22;37915;53.254;6.598;2022-11-15T04:18:37;7.50;99.90
51884;DHT22;37915;53.254;6.598;2022-11-15T04:21:03;7.50;99.90
51884;DHT22;37915;53.254;6.598;2022-11-15T04:23:48;7.50;99.90
51884;DHT22;37915;53.254;6.598;2022-11-15T04:26:32;7.50;99.90
51884;DHT22;37915;53.254;6.598;2022-11-15T04:28:58;7.50;99.90
51884;DHT22;37915;53.254;6.598;2022-11-15T04:31:42;7.50;99.90
51884;DHT22;37915;53.254;6.598;2022-11-15T04:34:07;7.60;99.90
51884;DHT22;37915;53.254;6.598;2022-11-15T04:36:33;7.60;99.90
51884;DHT22;37915;53.254;6.598;2022-11-15T04:39:17;7.60;99.90
51884;DHT22;37915;53.254;6.598;2022-11-15T04:41:43;7.60;99.90
51884;DHT22;37915;53.254;6.598;2022-11-15T04:44:08;7.60;99.90
51884;DHT22;37915;53.254;6.598;2022-11-15T04:46:35;8.00;99.90
51884;DHT22;37915;53.254;6.598;2022-11-15T04:49:00;7.60;99.90
51884;DHT22;37915;53.254;6.598;2022-11-15T04:51:26;7.60;99.90
51884;DHT22;37915;53.254;6.598;2022-11-15T04:53:52;7.80;99.90
51884;DHT22;37915;53.254;6.598;2022-11-15T04:56:18;7.60;99.90
51884;DHT22;37915;53.254;6.598;2022-11-15T04:58:43;7.70;99.90
51884;DHT22;37915;53.254;6.598;2022-11-15T05:01:11;7.60;99.90
51884;DHT22;37915;53.254;6.598;2022-11-15T05:03:37;7.70;99.90
51884;DHT22;37915;53.254;6.598;2022-11-15T05:06:22;7.70;99.90
51884;DHT22;37915;53.254;6.598;2022-11-15T05:08:47;7.90;99.90
51884;DHT22;37915;53.254;6.598;2022-11-15T05:11:13;7.80;99.90
51884;DHT22;37915;53.254;6.598;2022-11-15T05:13:39;7.80;99.90
51884;DHT22;37915;53.254;6.598;2022-11-15T05:16:04;7.80;99.90
51884;DHT22;37915;53.254;6.598;2022-11-15T05:18:30;7.80;99.90
51884;DHT22;37915;53.254;6.598;2022-11-15T05:20:56;7.80;99.90
51884;DHT22;37915;53.254;6.598;2022-11-15T05:23:21;7.90;99.90
51884;DHT22;37915;53.254;6.598;2022-11-15T05:25:47;7.90;99.90
51884;DHT22;37915;53.254;6.598;2022-11-15T05:28:13;8.30;99.90
51884;DHT22;37915;53.254;6.598;2022-11-15T05:30:38;7.90;99.90
51884;DHT22;37915;53.254;6.598;2022-11-15T05:33:04;7.90;99.90
51884;DHT22;37915;53.254;6.598;2022-11-15T05:36:00;8.00;99.90
51884;DHT22;37915;53.254;6.598;2022-11-15T05:38:28;8.00;99.90
51884;DHT22;37915;53.254;6.598;2022-11-15T05:40:54;8.00;99.90
51884;DHT22;37915;53.254;6.598;2022-11-15T05:43:20;8.00;99.90
51884;DHT22;37915;53.254;6.598;2022-11-15T05:45:46;8.10;99.90
51884;DHT22;37915;53.254;6.598;2022-11-15T05:48:12;8.00;99.90
51884;DHT22;37915;53.254;6.598;2022-11-15T05:50:41;8.10;99.90
51884;DHT22;37915;53.254;6.598;2022-11-15T05:53:10;8.60;99.90
51884;DHT22;37915;53.254;6.598;2022-11-15T05:55:37;8.10;99.90
51884;DHT22;37915;53.254;6.598;2022-11-15T05:58:03;8.10;99.90
51884;DHT22;37915;53.254;6.598;2022-11-15T06:00:29;8.10;99.90
51884;DHT22;37915;53.254;6.598;2022-11-15T06:02:55;8.20;99.90
51884;DHT22;37915;53.254;6.598;2022-11-15T06:05:20;8.30;99.90
51884;DHT22;37915;53.254;6.598;2022-11-15T06:07:46;8.20;99.90
51884;DHT22;37915;53.254;6.598;2022-11-15T06:10:11;8.40;99.90
51884;DHT22;37915;53.254;6.598;2022-11-15T06:12:37;8.20;99.90
51884;DHT22;37915;53.254;6.598;2022-11-15T06:15:03;8.20;99.90
51884;DHT22;37915;53.254;6.598;2022-11-15T06:17:29;8.30;99.90
51884;DHT22;37915;53.254;6.598;2022-11-15T06:19:54;8.80;99.90
51884;DHT22;37915;53.254;6.598;2022-11-15T06:22:20;8.30;99.90
51884;DHT22;37915;53.254;6.598;2022-11-15T06:24:46;8.30;99.90
51884;DHT22;37915;53.254;6.598;2022-11-15T06:27:12;8.30;99.90
51884;DHT22;37915;53.254;6.598;2022-11-15T06:29:37;8.40;99.90
51884;DHT22;37915;53.254;6.598;2022-11-15T06:32:03;8.40;99.90
51884;DHT22;37915;53.254;6.598;2022-11-15T06:34:29;8.40;99.90
51884;DHT22;37915;53.254;6.598;2022-11-15T06:36:55;8.40;99.90
51884;DHT22;37915;53.254;6.598;2022-11-15T06:39:20;8.40;99.90
51884;DHT22;37915;53.254;6.598;2022-11-15T06:41:46;8.40;99.90
51884;DHT22;37915;53.254;6.598;2022-11-15T06:44:12;8.50;99.90
51884;DHT22;37915;53.254;6.598;2022-11-15T06:46:37;8.50;99.90
51884;DHT22;37915;53.254;6.598;2022-11-15T06:49:03;8.50;99.90
51884;DHT22;37915;53.254;6.598;2022-11-15T06:51:29;8.50;99.90
51884;DHT22;37915;53.254;6.598;2022-11-15T06:53:54;8.60;99.90
51884;DHT22;37915;53.254;6.598;2022-11-15T06:56:20;8.50;99.90
51884;DHT22;37915;53.254;6.598;2022-11-15T06:58:45;8.60;99.90
51884;DHT22;37915;53.254;6.598;2022-11-15T07:01:12;8.90;99.90
51884;DHT22;37915;53.254;6.598;2022-11-15T07:03:40;8.60;99.90
51884;DHT22;37915;53.254;6.598;2022-11-15T07:06:06;8.70;99.90
51884;DHT22;37915;53.254;6.598;2022-11-15T07:08:32;8.70;99.90
51884;DHT22;37915;53.254;6.598;2022-11-15T07:10:59;8.80;99.90
51884;DHT22;37915;53.254;6.598;2022-11-15T07:13:26;8.90;99.90
51884;DHT22;37915;53.254;6.598;2022-11-15T07:15:52;8.90;99.90
51884;DHT22;37915;53.254;6.598;2022-11-15T07:18:18;8.90;99.90
51884;DHT22;37915;53.254;6.598;2022-11-15T07:20:44;9.00;99.90
51884;DHT22;37915;53.254;6.598;2022-11-15T07:23:10;9.10;99.90
51884;DHT22;37915;53.254;6.598;2022-11-15T07:25:35;9.10;99.90
51884;DHT22;37915;53.254;6.598;2022-11-15T07:28:02;9.20;99.90
51884;DHT22;37915;53.254;6.598;2022-11-15T07:30:28;9.20;99.90
51884;DHT22;37915;53.254;6.598;2022-11-15T07:32:58;9.30;99.90
51884;DHT22;37915;53.254;6.598;2022-11-15T07:35:25;9.60;99.90
51884;DHT22;37915;53.254;6.598;2022-11-15T07:38:04;9.40;99.90
51884;DHT22;37915;53.254;6.598;2022-11-15T07:40:31;9.40;99.90
51884;DHT22;37915;53.254;6.598;2022-11-15T07:43:05;9.60;99.90
51884;DHT22;37915;53.254;6.598;2022-11-15T07:45:31;9.50;99.90
51884;DHT22;37915;53.254;6.598;2022-11-15T07:47:59;9.50;99.90
51884;DHT22;37915;53.254;6.598;2022-11-15T07:50:25;9.60;99.90
51884;DHT22;37915;53.254;6.598;2022-11-15T07:52:58;9.60;99.90
51884;DHT22;37915;53.254;6.598;2022-11-15T07:55:26;9.60;99.90
51884;DHT22;37915;53.254;6.598;2022-11-15T07:57:53;9.70;99.90
51884;DHT22;37915;53.254;6.598;2022-11-15T08:00:19;9.70;99.90
51884;DHT22;37915;53.254;6.598;2022-11-15T08:02:45;9.70;99.90
51884;DHT22;37915;53.254;6.598;2022-11-15T08:05:11;9.80;99.90
51884;DHT22;37915;53.254;6.598;2022-11-15T08:07:37;9.80;99.90
51884;DHT22;37915;53.254;6.598;2022-11-15T08:10:04;9.80;99.90
51884;DHT22;37915;53.254;6.598;2022-11-15T08:12:31;9.80;99.90
51884;DHT22;37915;53.254;6.598;2022-11-15T08:14:57;10.00;99.90
51884;DHT22;37915;53.254;6.598;2022-11-15T08:17:24;10.00;99.90
51884;DHT22;37915;53.254;6.598;2022-11-15T08:19:50;9.90;99.90
51884;DHT22;37915;53.254;6.598;2022-11-15T08:22:16;9.90;99.90
51884;DHT22;37915;53.254;6.598;2022-11-15T08:24:41;10.30;99.90
51884;DHT22;37915;53.254;6.598;2022-11-15T08:27:07;10.00;99.90
51884;DHT22;37915;53.254;6.598;2022-11-15T08:29:43;10.10;99.90
51884;DHT22;37915;53.254;6.598;2022-11-15T08:32:10;10.10;99.90
51884;DHT22;37915;53.254;6.598;2022-11-15T08:34:39;10.10;99.90
51884;DHT22;37915;53.254;6.598;2022-11-15T08:37:05;10.20;99.90
51884;DHT22;37915;53.254;6.598;2022-11-15T08:39:31;10.20;99.90
51884;DHT22;37915;53.254;6.598;2022-11-15T08:41:57;10.20;99.90
51884;DHT22;37915;53.254;6.598;2022-11-15T08:44:23;10.20;99.90
51884;DHT22;37915;53.254;6.598;2022-11-15T08:46:49;10.30;99.90
51884;DHT22;37915;53.254;6.598;2022-11-15T08:49:15;10.30;99.90
51884;DHT22;37915;53.254;6.598;2022-11-15T08:51:41;10.30;99.90
51884;DHT22;37915;53.254;6.598;2022-11-15T08:54:07;10.40;99.90
51884;DHT22;37915;53.254;6.598;2022-11-15T08:56:33;10.40;99.90
51884;DHT22;37915;53.254;6.598;2022-11-15T08:58:58;10.40;99.90
51884;DHT22;37915;53.254;6.598;2022-11-15T09:01:24;10.40;99.90
51884;DHT22;37915;53.254;6.598;2022-11-15T09:03:50;10.50;99.90
51884;DHT22;37915;53.254;6.598;2022-11-15T09:06:16;10.40;99.90
51884;DHT22;37915;53.254;6.598;2022-11-15T09:08:42;10.50;99.90
51884;DHT22;37915;53.254;6.598;2022-11-15T09:11:09;10.50;99.90
51884;DHT22;37915;53.254;6.598;2022-11-15T09:13:35;10.50;99.90
51884;DHT22;37915;53.254;6.598;2022-11-15T09:16:03;10.70;99.90
51884;DHT22;37915;53.254;6.598;2022-11-15T09:18:29;10.60;99.90
51884;DHT22;37915;53.254;6.598;2022-11-15T09:20:57;10.70;99.90
51884;DHT22;37915;53.254;6.598;2022-11-15T09:23:23;10.80;99.90
51884;DHT22;37915;53.254;6.598;2022-11-15T09:25:49;10.80;99.90
51884;DHT22;37915;53.254;6.598;2022-11-15T09:28:15;10.80;99.90
51884;DHT22;37915;53.254;6.598;2022-11-15T09:30:41;10.90;99.90
51884;DHT22;37915;53.254;6.598;2022-11-15T09:33:08;10.90;99.90
51884;DHT22;37915;53.254;6.598;2022-11-15T09:35:34;10.90;99.90
51884;DHT22;37915;53.254;6.598;2022-11-15T09:38:00;11.00;99.90
51884;DHT22;37915;53.254;6.598;2022-11-15T09:40:26;11.10;99.90
51884;DHT22;37915;53.254;6.598;2022-11-15T09:43:41;11.10;99.90
51884;DHT22;37915;53.254;6.598;2022-11-15T09:48:57;11.20;99.90
51884;DHT22;37915;53.254;6.598;2022-11-15T09:51:26;11.20;99.90
51884;DHT22;37915;53.254;6.598;2022-11-15T09:56:41;11.30;99.90
51884;DHT22;37915;53.254;6.598;2022-11-15T10:02:14;11.30;99.90
51884;DHT22;37915;53.254;6.598;2022-11-15T10:04:41;11.30;99.90
51884;DHT22;37915;53.254;6.598;2022-11-15T10:07:16;11.30;99.90
51884;DHT22;37915;53.254;6.598;2022-11-15T10:12:19;11.40;99.90
51884;DHT22;37915;53.254;6.598;2022-11-15T10:14:46;11.40;99.90
51884;DHT22;37915;53.254;6.598;2022-11-15T10:20:10;11.40;99.90
51884;DHT22;37915;53.254;6.598;2022-11-15T10:22:44;11.40;99.90
51884;DHT22;37915;53.254;6.598;2022-11-15T10:27:39;11.40;99.90
51884;DHT22;37915;53.254;6.598;2022-11-15T10:30:13;11.40;99.90
51884;DHT22;37915;53.254;6.598;2022-11-15T10:32:40;11.40;99.90
51884;DHT22;37915;53.254;6.598;2022-11-15T10:35:36;11.40;99.90
51884;DHT22;37915;53.254;6.598;2022-11-15T10:38:07;11.50;99.90
51884;DHT22;37915;53.254;6.598;2022-11-15T10:40:33;11.50;99.90
51884;DHT22;37915;53.254;6.598;2022-11-15T10:43:10;11.50;99.90
51884;DHT22;37915;53.254;6.598;2022-11-15T10:45:38;11.50;99.90
51884;DHT22;37915;53.254;6.598;2022-11-15T10:50:43;11.60;99.90
51884;DHT22;37915;53.254;6.598;2022-11-15T10:55:49;11.60;99.90
51884;DHT22;37915;53.254;6.598;2022-11-15T11:01:29;11.60;99.90
51884;DHT22;37915;53.254;6.598;2022-11-15T11:03:59;11.60;99.90
51884;DHT22;37915;53.254;6.598;2022-11-15T11:06:25;11.60;99.90
51884;DHT22;37915;53.254;6.598;2022-11-15T11:09:04;11.60;99.90
51884;DHT22;37915;53.254;6.598;2022-11-15T11:11:48;11.70;99.90
51884;DHT22;37915;53.254;6.598;2022-11-15T11:14:29;11.60;99.90
51884;DHT22;37915;53.254;6.598;2022-11-15T11:17:16;11.60;99.90
51884;DHT22;37915;53.254;6.598;2022-11-15T11:22:47;11.60;99.90
51884;DHT22;37915;53.254;6.598;2022-11-15T11:25:22;11.50;99.90
51884;DHT22;37915;53.254;6.598;2022-11-15T11:30:39;11.60;99.90
51884;DHT22;37915;53.254;6.598;2022-11-15T11:33:12;11.50;99.90
51884;DHT22;37915;53.254;6.598;2022-11-15T11:35:50;11.50;99.90
51884;DHT22;37915;53.254;6.598;2022-11-15T11:46:29;11.70;99.90
51884;DHT22;37915;53.254;6.598;2022-11-15T11:49:02;11.70;99.90
51884;DHT22;37915;53.254;6.598;2022-11-15T11:51:36;11.70;99.90
51884;DHT22;37915;53.254;6.598;2022-11-15T11:54:13;11.80;99.90
51884;DHT22;37915;53.254;6.598;2022-11-15T11:56:41;11.80;99.90
51884;DHT22;37915;53.254;6.598;2022-11-15T12:02:12;11.90;99.90
51884;DHT22;37915;53.254;6.598;2022-11-15T12:04:44;11.90;99.90
51884;DHT22;37915;53.254;6.598;2022-11-15T12:07:21;12.00;99.90
51884;DHT22;37915;53.254;6.598;2022-11-15T12:09:58;12.00;99.90
51884;DHT22;37915;53.254;6.598;2022-11-15T12:15:23;12.00;99.90
51884;DHT22;37915;53.254;6.598;2022-11-15T12:17:49;12.00;99.90
51884;DHT22;37915;53.254;6.598;2022-11-15T12:20:28;11.90;99.90
51884;DHT22;37915;53.254;6.598;2022-11-15T12:22:59;11.90;99.90
51884;DHT22;37915;53.254;6.598;2022-11-15T12:25:39;11.90;99.90
51884;DHT22;37915;53.254;6.598;2022-11-15T12:28:19;11.90;99.90
51884;DHT22;37915;53.254;6.598;2022-11-15T12:31:14;11.90;99.90
51884;DHT22;37915;53.254;6.598;2022-11-15T12:33:47;11.90;99.90
51884;DHT22;37915;53.254;6.598;2022-11-15T12:39:03;11.80;99.90
51884;DHT22;37915;53.254;6.598;2022-11-15T12:44:11;11.90;99.90
51884;DHT22;37915;53.254;6.598;2022-11-15T12:59:56;11.80;99.90
51884;DHT22;37915;53.254;6.598;2022-11-15T13:02:36;11.80;99.90
51884;DHT22;37915;53.254;6.598;2022-11-15T13:25:18;12.10;99.90
51884;DHT22;37915;53.254;6.598;2022-11-15T13:27:48;12.20;99.90
51884;DHT22;37915;53.254;6.598;2022-11-15T13:30:20;12.20;99.90
51884;DHT22;37915;53.254;6.598;2022-11-15T13:32:47;12.20;99.90
51884;DHT22;37915;53.254;6.598;2022-11-15T13:35:25;12.30;99.90
51884;DHT22;37915;53.254;6.598;2022-11-15T13:37:55;12.20;99.90
51884;DHT22;37915;53.254;6.598;2022-11-15T13:40:29;12.20;99.90
51884;DHT22;37915;53.254;6.598;2022-11-15T13:42:59;12.10;99.90
51884;DHT22;37915;53.254;6.598;2022-11-15T13:45:39;12.10;99.90
51884;DHT22;37915;53.254;6.598;2022-11-15T13:48:05;12.00;99.90
51884;DHT22;37915;53.254;6.598;2022-11-15T13:50:35;12.00;99.90
51884;DHT22;37915;53.254;6.598;2022-11-15T13:53:03;11.90;99.90
51884;DHT22;37915;53.254;6.598;2022-11-15T13:55:30;11.90;99.90
51884;DHT22;37915;53.254;6.598;2022-11-15T13:58:04;11.90;99.90
51884;DHT22;37915;53.254;6.598;2022-11-15T14:00:40;11.80;99.90
51884;DHT22;37915;53.254;6.598;2022-11-15T14:05:33;11.80;99.90
51884;DHT22;37915;53.254;6.598;2022-11-15T14:08:12;11.70;99.90
51884;DHT22;37915;53.254;6.598;2022-11-15T14:10:46;11.80;99.90
51884;DHT22;37915;53.254;6.598;2022-11-15T14:13:30;11.70;99.90
51884;DHT22;37915;53.254;6.598;2022-11-15T14:16:15;11.70;99.90
51884;DHT22;37915;53.254;6.598;2022-11-15T14:18:48;11.60;99.90
51884;DHT22;37915;53.254;6.598;2022-11-15T14:21:14;11.60;99.90
51884;DHT22;37915;53.254;6.598;2022-11-15T14:23:40;11.50;99.90
51884;DHT22;37915;53.254;6.598;2022-11-15T14:26:10;11.50;99.90
51884;DHT22;37915;53.254;6.598;2022-11-15T14:28:36;11.50;99.90
51884;DHT22;37915;53.254;6.598;2022-11-15T14:31:11;11.80;99.90
51884;DHT22;37915;53.254;6.598;2022-11-15T14:33:39;11.50;99.90
51884;DHT22;37915;53.254;6.598;2022-11-15T14:36:20;11.40;99.90
51884;DHT22;37915;53.254;6.598;2022-11-15T14:38:46;11.40;99.90
51884;DHT22;37915;53.254;6.598;2022-11-15T14:41:21;11.30;99.90
51884;DHT22;37915;53.254;6.598;2022-11-15T14:43:47;11.30;99.90
51884;DHT22;37915;53.254;6.598;2022-11-15T14:46:25;11.30;99.90
51884;DHT22;37915;53.254;6.598;2022-11-15T14:49:23;12.40;99.90
51884;DHT22;37915;53.254;6.598;2022-11-15T14:51:49;11.20;99.90
51884;DHT22;37915;53.254;6.598;2022-11-15T14:54:14;11.20;99.90
51884;DHT22;37915;53.254;6.598;2022-11-15T14:56:40;11.20;99.90
51884;DHT22;37915;53.254;6.598;2022-11-15T14:59:07;11.10;99.90
51884;DHT22;37915;53.254;6.598;2022-11-15T15:01:42;11.10;99.90
51884;DHT22;37915;53.254;6.598;2022-11-15T15:04:14;11.10;99.90
51884;DHT22;37915;53.254;6.598;2022-11-15T15:06:42;11.00;99.90
51884;DHT22;37915;53.254;6.598;2022-11-15T15:09:08;11.00;99.90
51884;DHT22;37915;53.254;6.598;2022-11-15T15:11:39;10.90;99.90
51884;DHT22;37915;53.254;6.598;2022-11-15T15:14:08;10.90;99.90
51884;DHT22;37915;53.254;6.598;2022-11-15T15:16:34;10.90;99.90
51884;DHT22;37915;53.254;6.598;2022-11-15T15:18:59;10.80;99.90
51884;DHT22;37915;53.254;6.598;2022-11-15T15:21:26;10.80;99.90
51884;DHT22;37915;53.254;6.598;2022-11-15T15:24:01;10.70;99.90
51884;DHT22;37915;53.254;6.598;2022-11-15T15:26:27;10.70;99.90
51884;DHT22;37915;53.254;6.598;2022-11-15T15:28:55;10.70;99.90
51884;DHT22;37915;53.254;6.598;2022-11-15T15:31:24;10.60;99.90
51884;DHT22;37915;53.254;6.598;2022-11-15T15:33:49;10.60;99.90
51884;DHT22;37915;53.254;6.598;2022-11-15T15:36:18;10.60;99.90
51884;DHT22;37915;53.254;6.598;2022-11-15T15:38:44;10.60;99.90
51884;DHT22;37915;53.254;6.598;2022-11-15T15:41:13;10.50;99.90
51884;DHT22;37915;53.254;6.598;2022-11-15T15:43:39;10.50;99.90
51884;DHT22;37915;53.254;6.598;2022-11-15T15:46:12;10.40;99.90
51884;DHT22;37915;53.254;6.598;2022-11-15T15:48:38;10.40;99.90
51884;DHT22;37915;53.254;6.598;2022-11-15T15:51:05;10.30;99.90
51884;DHT22;37915;53.254;6.598;2022-11-15T15:53:31;10.30;99.90
51884;DHT22;37915;53.254;6.598;2022-11-15T15:55:57;10.30;99.90
51884;DHT22;37915;53.254;6.598;2022-11-15T15:58:23;10.30;99.90
51884;DHT22;37915;53.254;6.598;2022-11-15T16:00:48;10.20;99.90
51884;DHT22;37915;53.254;6.598;2022-11-15T16:03:14;10.20;99.90
51884;DHT22;37915;53.254;6.598;2022-11-15T16:05:40;10.20;99.90
51884;DHT22;37915;53.254;6.598;2022-11-15T16:08:07;10.20;99.90
51884;DHT22;37915;53.254;6.598;2022-11-15T16:10:35;10.20;99.90
51884;DHT22;37915;53.254;6.598;2022-11-15T16:13:02;10.20;99.90
51884;DHT22;37915;53.254;6.598;2022-11-15T16:15:30;10.20;99.90
51884;DHT22;37915;53.254;6.598;2022-11-15T16:17:58;10.30;99.90
51884;DHT22;37915;53.254;6.598;2022-11-15T16:20:39;10.10;99.90
51884;DHT22;37915;53.254;6.598;2022-11-15T16:23:10;10.10;99.90
51884;DHT22;37915;53.254;6.598;2022-11-15T16:25:45;10.00;99.90
51884;DHT22;37915;53.254;6.598;2022-11-15T16:28:32;10.00;99.90
51884;DHT22;37915;53.254;6.598;2022-11-15T16:31:02;10.00;99.90
51884;DHT22;37915;53.254;6.598;2022-11-15T16:33:28;10.00;99.90
51884;DHT22;37915;53.254;6.598;2022-11-15T16:35:54;10.00;99.90
51884;DHT22;37915;53.254;6.598;2022-11-15T16:38:20;10.00;99.90
51884;DHT22;37915;53.254;6.598;2022-11-15T16:40:46;10.00;99.90
51884;DHT22;37915;53.254;6.598;2022-11-15T16:43:11;10.00;99.90
51884;DHT22;37915;53.254;6.598;2022-11-15T16:45:37;10.00;99.90
51884;DHT22;37915;53.254;6.598;2022-11-15T16:48:03;10.00;99.90
51884;DHT22;37915;53.254;6.598;2022-11-15T16:50:33;10.00;99.90
51884;DHT22;37915;53.254;6.598;2022-11-15T16:53:04;10.00;99.90
51884;DHT22;37915;53.254;6.598;2022-11-15T16:55:29;10.00;99.90
51884;DHT22;37915;53.254;6.598;2022-11-15T16:57:56;10.10;99.90
51884;DHT22;37915;53.254;6.598;2022-11-15T17:00:26;10.10;99.90
51884;DHT22;37915;53.254;6.598;2022-11-15T17:02:52;10.20;99.90
51884;DHT22;37915;53.254;6.598;2022-11-15T17:05:20;10.20;99.90
51884;DHT22;37915;53.254;6.598;2022-11-15T17:07:48;10.20;99.90
51884;DHT22;37915;53.254;6.598;2022-11-15T17:10:15;10.20;99.90
51884;DHT22;37915;53.254;6.598;2022-11-15T17:12:41;10.20;99.90
51884;DHT22;37915;53.254;6.598;2022-11-15T17:15:08;10.30;99.90
51884;DHT22;37915;53.254;6.598;2022-11-15T17:17:35;10.30;99.90
51884;DHT22;37915;53.254;6.598;2022-11-15T17:20:01;10.30;99.90
51884;DHT22;37915;53.254;6.598;2022-11-15T17:22:29;10.30;99.90
51884;DHT22;37915;53.254;6.598;2022-11-15T17:24:56;10.30;99.90
51884;DHT22;37915;53.254;6.598;2022-11-15T17:27:21;10.30;99.90
51884;DHT22;37915;53.254;6.598;2022-11-15T17:29:48;10.30;99.90
51884;DHT22;37915;53.254;6.598;2022-11-15T17:32:13;10.40;99.90
51884;DHT22;37915;53.254;6.598;2022-11-15T17:34:39;10.40;99.90
51884;DHT22;37915;53.254;6.598;2022-11-15T17:37:05;10.40;99.90
51884;DHT22;37915;53.254;6.598;2022-11-15T17:39:30;10.30;99.90
51884;DHT22;37915;53.254;6.598;2022-11-15T17:41:56;10.30;99.90
51884;DHT22;37915;53.254;6.598;2022-11-15T17:44:22;10.30;99.90
51884;DHT22;37915;53.254;6.598;2022-11-15T17:46:48;10.30;99.90
51884;DHT22;37915;53.254;6.598;2022-11-15T17:49:13;10.40;99.90
51884;DHT22;37915;53.254;6.598;2022-11-15T17:51:39;10.20;99.90
51884;DHT22;37915;53.254;6.598;2022-11-15T17:54:05;10.20;99.90
51884;DHT22;37915;53.254;6.598;2022-11-15T17:56:30;10.20;99.90